Flight Briefing for CPX430

Departure Arrival
Sacramento International Airport (KSMF)
Click to view FAA NOTAMS
Seattle-Tacoma International Airport (KSEA)
Click to view FAA NOTAMS
Departure Time Arrival Time
N/A N/A
Aircraft Distance
B757-200SF 527nm
Departure METAR Arrival METAR
KSMF 200853Z 16006KT 7SM -RA FEW035 OVC055 12/11 A2991 RMK AO2 SLP129 P0014 60020 T01170106 53039 KSEA 200853Z 09011KT 10SM CLR 19/M06 A2994 RMK AO2 SLP141 T01941056 58006
Suggested Route
RBL J126 OED J1 SEA


View recent IFR Routes data
Notes



Charts and Procedures

Charts for KSMF
No chart available
Charts for KSEA
No chart available

Windy.com Weather Map